Time;durP1;ratioP1;P1;durP2;ratioP2;P2;SDS_P1;SDS_P2;PMS_P1;PMS_P2;Temp;Humidity;BMP_temperature;BMP_pressure;BME280_temperature;BME280_humidity;BME280_pressure;Samples;Min_cycle;Max_cycle;Signal;HPM_P1;HPM_P2
2022/10/22 00:02:10;;;;;;;12.00;7.77;;;14.90;99.90;;;;;;5095432;28;20526;-38
2022/10/22 00:04:37;;;;;;;12.17;7.40;;;14.90;99.90;;;;;;5095436;28;20510;-40
2022/10/22 00:07:05;;;;;;;11.57;8.00;;;14.90;99.90;;;;;;5095380;28;20527;-41
2022/10/22 00:09:33;;;;;;;20.53;8.27;;;14.90;99.90;;;;;;5095913;28;20462;-40
2022/10/22 00:12:02;;;;;;;10.57;7.50;;;14.90;99.90;;;;;;5095902;28;20442;-39
2022/10/22 00:14:29;;;;;;;11.87;7.73;;;15.00;99.90;;;;;;5094972;28;20477;-42
2022/10/22 00:16:59;;;;;;;10.23;7.27;;;15.00;99.90;;;;;;5093880;28;21055;-39
2022/10/22 00:19:28;;;;;;;11.77;8.20;;;15.00;99.90;;;;;;5091230;28;20552;-40
2022/10/22 00:21:57;;;;;;;13.03;8.47;;;15.00;99.90;;;;;;5090536;28;20450;-41
2022/10/22 00:24:24;;;;;;;14.70;8.07;;;15.00;99.90;;;;;;5090673;28;20470;-41
2022/10/22 00:26:52;;;;;;;14.33;9.10;;;15.00;99.90;;;;;;5090641;28;20495;-38
2022/10/22 00:29:19;;;;;;;14.77;7.70;;;15.00;99.90;;;;;;5088456;28;20450;-40
2022/10/22 00:31:48;;;;;;;13.40;8.00;;;15.00;99.90;;;;;;5086929;28;20565;-42
2022/10/22 00:34:16;;;;;;;13.33;7.40;;;15.00;99.90;;;;;;5088830;28;20545;-42
2022/10/22 00:36:42;;;;;;;12.03;7.80;;;15.10;99.90;;;;;;5084794;28;20521;-38
2022/10/22 00:39:11;;;;;;;11.50;7.70;;;15.10;99.90;;;;;;5085902;28;20748;-40
2022/10/22 00:41:38;;;;;;;12.60;8.53;;;15.10;99.90;;;;;;5086678;28;20446;-39
2022/10/22 00:44:07;;;;;;;11.57;7.90;;;15.00;99.90;;;;;;5087327;28;20497;-41
2022/10/22 00:46:34;;;;;;;8.67;6.47;;;15.00;99.90;;;;;;5091177;28;20997;-40
2022/10/22 00:49:03;;;;;;;11.93;8.10;;;15.00;99.90;;;;;;5089003;28;20462;-39
2022/10/22 00:51:33;;;;;;;12.23;7.73;;;15.00;99.90;;;;;;5089905;28;20473;-40
2022/10/22 00:54:04;;;;;;;12.60;7.73;;;15.00;99.90;;;;;;5086396;28;20485;-40
2022/10/22 00:56:32;;;;;;;13.80;8.37;;;15.00;99.90;;;;;;5086041;28;20442;-41
2022/10/22 00:59:02;;;;;;;11.60;8.33;;;15.00;99.90;;;;;;5086268;28;20450;-40
2022/10/22 01:01:31;;;;;;;11.40;7.70;;;15.00;99.90;;;;;;5085796;28;20470;-41
2022/10/22 01:03:58;;;;;;;13.07;7.27;;;15.10;99.90;;;;;;5088616;28;20446;-43
2022/10/22 01:06:29;;;;;;;12.07;7.60;;;15.00;99.90;;;;;;5087707;28;20480;-42
2022/10/22 01:09:09;;;;;;;10.60;7.40;;;15.00;99.90;;;;;;5085657;28;20452;-40
2022/10/22 01:11:48;;;;;;;16.30;8.40;;;15.00;99.90;;;;;;5085953;28;20434;-41
2022/10/22 01:14:22;;;;;;;12.90;7.43;;;15.00;99.90;;;;;;5085400;28;20473;-41
2022/10/22 01:16:59;;;;;;;10.97;7.73;;;15.00;99.90;;;;;;5086175;28;20445;-41
2022/10/22 01:19:40;;;;;;;9.80;6.20;;;15.00;99.90;;;;;;5086918;28;20430;-39
2022/10/22 01:22:15;;;;;;;12.77;7.80;;;15.10;99.90;;;;;;5089038;28;20439;-41
2022/10/22 01:24:57;;;;;;;12.20;7.30;;;15.00;99.90;;;;;;5087322;28;20472;-40
2022/10/22 01:27:35;;;;;;;13.23;8.47;;;15.00;99.90;;;;;;5087561;28;20426;-40
2022/10/22 01:30:05;;;;;;;13.53;8.60;;;15.00;99.90;;;;;;5088374;28;20968;-42
2022/10/22 01:32:38;;;;;;;12.77;8.73;;;15.00;99.90;;;;;;5087621;28;20429;-40
2022/10/22 01:35:09;;;;;;;16.90;8.87;;;14.90;99.90;;;;;;5086662;28;20477;-42
2022/10/22 01:37:48;;;;;;;11.47;7.63;;;14.90;99.90;;;;;;5086507;28;20446;-40
2022/10/22 01:40:17;;;;;;;16.47;7.80;;;14.90;99.90;;;;;;5066270;28;20461;-41
2022/10/22 01:42:57;;;;;;;11.83;8.10;;;14.90;99.90;;;;;;5065639;28;20471;-40
2022/10/22 01:45:25;;;;;;;10.60;7.27;;;14.90;99.90;;;;;;5065201;28;20461;-39
2022/10/22 01:48:04;;;;;;;13.57;9.03;;;14.90;99.90;;;;;;5065908;28;20477;-38
2022/10/22 01:50:42;;;;;;;15.27;7.80;;;14.90;99.90;;;;;;5083752;28;21002;-40
2022/10/22 01:53:28;;;;;;;15.97;8.57;;;14.90;99.90;;;;;;5085663;28;20453;-41
2022/10/22 01:56:10;;;;;;;10.33;7.30;;;14.90;99.90;;;;;;5086474;28;20671;-40
2022/10/22 01:58:45;;;;;;;11.93;8.10;;;14.90;99.90;;;;;;5081158;28;20442;-39
2022/10/22 02:01:24;;;;;;;11.90;7.40;;;14.80;99.90;;;;;;5081946;28;20803;-43
2022/10/22 02:03:59;;;;;;;11.20;6.70;;;14.80;99.90;;;;;;5082846;28;20442;-39
2022/10/22 02:06:29;;;;;;;12.73;6.73;;;14.80;99.90;;;;;;5085129;28;20473;-39
2022/10/22 02:09:00;;;;;;;14.23;7.87;;;14.80;99.90;;;;;;5083032;28;20437;-39
2022/10/22 02:11:27;;;;;;;13.20;8.80;;;14.80;99.90;;;;;;5082694;28;20423;-43
2022/10/22 02:13:58;;;;;;;10.53;7.60;;;14.80;99.90;;;;;;5084858;28;20430;-40
2022/10/22 02:16:30;;;;;;;13.60;8.33;;;14.80;99.90;;;;;;5084776;28;20521;-42
2022/10/22 02:19:00;;;;;;;15.20;7.63;;;14.80;99.90;;;;;;5084344;28;20454;-40
2022/10/22 02:21:28;;;;;;;11.23;6.47;;;14.80;99.90;;;;;;5084235;28;20506;-42
2022/10/22 02:23:55;;;;;;;16.17;7.60;;;14.70;99.90;;;;;;5085726;28;20471;-39
2022/10/22 02:26:28;;;;;;;11.90;7.90;;;14.70;99.90;;;;;;5082354;28;20453;-39
2022/10/22 02:29:02;;;;;;;11.00;7.03;;;14.70;99.90;;;;;;5086397;28;20431;-40
2022/10/22 02:31:34;;;;;;;11.43;6.90;;;14.70;99.90;;;;;;5085750;28;20430;-40
2022/10/22 02:34:06;;;;;;;15.27;7.80;;;14.70;99.90;;;;;;5082940;28;20426;-40
2022/10/22 02:36:34;;;;;;;12.37;8.10;;;14.70;99.90;;;;;;5083038;28;20509;-38
2022/10/22 02:39:02;;;;;;;12.73;7.47;;;14.60;99.90;;;;;;5080774;28;20438;-41
2022/10/22 02:41:29;;;;;;;12.67;7.53;;;14.70;99.90;;;;;;5085009;28;20500;-39
2022/10/22 02:43:56;;;;;;;9.73;6.80;;;14.70;99.90;;;;;;5083729;28;20470;-40
2022/10/22 02:46:24;;;;;;;12.10;7.13;;;14.60;99.90;;;;;;5080830;28;20434;-41
2022/10/22 02:48:52;;;;;;;11.57;7.57;;;14.60;99.90;;;;;;5088961;28;20522;-39
2022/10/22 02:51:19;;;;;;;12.57;8.33;;;14.60;99.90;;;;;;5084523;28;20450;-40
2022/10/22 02:53:45;;;;;;;12.47;7.90;;;14.60;99.90;;;;;;5081518;28;20482;-41
2022/10/22 02:56:13;;;;;;;10.20;7.30;;;14.60;99.90;;;;;;5085368;28;20478;-38
2022/10/22 02:58:39;;;;;;;10.00;7.00;;;14.60;99.90;;;;;;5083947;28;20453;-40
2022/10/22 03:01:06;;;;;;;10.40;7.13;;;14.60;99.90;;;;;;5077702;28;20442;-39
2022/10/22 03:03:33;;;;;;;13.03;7.33;;;14.60;99.90;;;;;;5079702;28;20922;-41
2022/10/22 03:06:01;;;;;;;12.27;7.90;;;14.60;99.90;;;;;;5081523;28;20462;-45
2022/10/22 03:08:28;;;;;;;13.30;7.30;;;14.60;99.90;;;;;;5082959;28;20457;-40
2022/10/22 03:10:55;;;;;;;12.23;7.83;;;14.50;99.90;;;;;;5083891;28;20461;-41
2022/10/22 03:13:21;;;;;;;10.53;6.27;;;14.50;99.90;;;;;;5081858;28;20412;-39
2022/10/22 03:15:49;;;;;;;10.10;6.87;;;14.50;99.90;;;;;;5079987;28;20488;-39
2022/10/22 03:18:16;;;;;;;10.60;6.67;;;14.60;99.90;;;;;;5079694;28;20549;-39
2022/10/22 03:20:43;;;;;;;13.90;6.87;;;14.50;99.90;;;;;;5079286;28;20438;-38
2022/10/22 03:23:13;;;;;;;9.97;7.37;;;14.50;99.90;;;;;;5079394;28;20529;-39
2022/10/22 03:25:41;;;;;;;12.17;7.87;;;14.50;99.90;;;;;;5078960;28;20426;-38
2022/10/22 03:28:13;;;;;;;9.73;6.90;;;14.60;99.90;;;;;;5080068;28;20454;-43
2022/10/22 03:30:46;;;;;;;12.33;6.80;;;14.50;99.90;;;;;;5076985;28;20470;-39
2022/10/22 03:33:12;;;;;;;11.47;7.40;;;14.50;99.90;;;;;;5079637;28;20525;-38
2022/10/22 03:35:44;;;;;;;12.37;6.70;;;14.60;99.90;;;;;;5078875;28;20486;-41
2022/10/22 03:38:13;;;;;;;9.83;6.50;;;14.60;99.90;;;;;;5079559;28;20737;-40
2022/10/22 03:40:41;;;;;;;8.77;5.90;;;14.60;99.90;;;;;;5079060;28;20442;-38
2022/10/22 03:43:07;;;;;;;10.83;6.23;;;14.60;99.90;;;;;;5079666;28;20481;-41
2022/10/22 03:45:34;;;;;;;12.17;6.70;;;14.60;99.90;;;;;;5079096;28;20447;-42
2022/10/22 03:48:01;;;;;;;9.80;6.23;;;14.60;99.90;;;;;;5079710;28;20479;-40
2022/10/22 03:50:28;;;;;;;13.70;7.23;;;14.40;99.90;;;;;;5079579;28;20434;-41
2022/10/22 03:52:56;;;;;;;10.63;7.03;;;14.60;99.90;;;;;;5079309;28;20453;-42
2022/10/22 03:55:25;;;;;;;13.30;7.03;;;14.60;99.90;;;;;;5079550;28;20474;-42
2022/10/22 03:57:51;;;;;;;9.93;6.67;;;14.60;99.90;;;;;;5079432;28;20453;-41
2022/10/22 04:00:18;;;;;;;12.07;6.97;;;14.60;99.90;;;;;;5079222;28;20474;-40
2022/10/22 04:02:45;;;;;;;8.70;6.50;;;14.60;99.90;;;;;;5079279;28;20484;-39
2022/10/22 04:05:12;;;;;;;9.17;6.00;;;14.60;99.90;;;;;;5079324;28;20458;-38
2022/10/22 04:07:39;;;;;;;11.27;7.37;;;14.60;99.90;;;;;;5079525;28;20470;-41
2022/10/22 04:10:06;;;;;;;9.07;6.60;;;14.60;99.90;;;;;;5079100;28;20443;-41
2022/10/22 04:12:34;;;;;;;8.67;6.33;;;14.60;99.90;;;;;;5077557;28;20467;-41
2022/10/22 04:15:01;;;;;;;16.10;8.67;;;14.60;99.90;;;;;;5078226;28;20978;-40
2022/10/22 04:17:34;;;;;;;10.40;7.37;;;14.50;99.90;;;;;;5079607;28;20902;-41
2022/10/22 04:20:00;;;;;;;13.57;7.70;;;14.50;99.90;;;;;;5079495;28;20435;-41
2022/10/22 04:22:27;;;;;;;13.90;8.17;;;14.50;99.90;;;;;;5080450;28;20459;-40
2022/10/22 04:24:54;;;;;;;11.70;7.53;;;14.50;99.90;;;;;;5080800;28;20472;-41
2022/10/22 04:27:21;;;;;;;13.87;7.33;;;14.50;99.90;;;;;;5079324;28;20454;-41
2022/10/22 04:29:49;;;;;;;12.40;7.87;;;14.50;99.90;;;;;;5079587;28;20468;-41
2022/10/22 04:32:16;;;;;;;12.33;7.00;;;14.50;99.90;;;;;;5077884;28;20486;-43
2022/10/22 04:34:43;;;;;;;14.97;6.93;;;14.50;99.90;;;;;;5077167;28;20513;-41
2022/10/22 04:37:09;;;;;;;13.13;7.10;;;14.50;99.90;;;;;;5078529;28;20954;-40
2022/10/22 04:39:36;;;;;;;10.30;7.20;;;14.50;99.90;;;;;;5079597;28;20439;-38
2022/10/22 04:42:03;;;;;;;10.70;8.03;;;14.50;99.90;;;;;;5079262;28;20450;-40
2022/10/22 04:44:30;;;;;;;11.10;6.90;;;14.40;99.90;;;;;;5078167;28;20478;-39
2022/10/22 04:46:58;;;;;;;13.03;6.80;;;14.40;99.90;;;;;;5079067;28;20450;-40
2022/10/22 04:49:25;;;;;;;11.53;7.43;;;14.40;99.90;;;;;;5080096;28;20466;-41
2022/10/22 04:51:52;;;;;;;12.53;6.47;;;14.40;99.90;;;;;;5079295;28;20460;-42
2022/10/22 04:54:19;;;;;;;12.20;7.20;;;14.40;99.90;;;;;;5078754;28;20442;-39
2022/10/22 04:56:45;;;;;;;9.87;6.70;;;14.40;99.90;;;;;;5078439;28;20779;-38
2022/10/22 04:59:12;;;;;;;11.60;8.10;;;14.40;99.90;;;;;;5078808;28;20442;-40
2022/10/22 05:01:43;;;;;;;11.77;7.07;;;14.40;99.90;;;;;;5078195;28;20476;-43
2022/10/22 05:04:15;;;;;;;9.60;6.50;;;14.40;99.90;;;;;;5078010;28;20434;-40
2022/10/22 05:06:42;;;;;;;12.97;7.57;;;14.30;99.90;;;;;;5078097;28;20431;-41
2022/10/22 05:09:12;;;;;;;11.23;7.37;;;14.30;99.90;;;;;;5085636;28;20769;-39
2022/10/22 05:11:40;;;;;;;9.00;6.07;;;14.30;99.90;;;;;;5078526;28;20438;-40
2022/10/22 05:14:08;;;;;;;11.03;8.07;;;14.30;99.90;;;;;;5078398;28;20568;-40
2022/10/22 05:16:36;;;;;;;12.00;7.93;;;14.30;99.90;;;;;;5078526;28;20478;-39
2022/10/22 05:19:04;;;;;;;14.47;8.80;;;14.30;99.90;;;;;;5077710;28;20458;-41
2022/10/22 05:21:32;;;;;;;10.00;6.90;;;14.30;99.90;;;;;;5077284;28;20470;-38
2022/10/22 05:23:59;;;;;;;13.10;6.00;;;14.30;99.90;;;;;;5078525;28;20546;-39
2022/10/22 05:26:28;;;;;;;11.37;8.20;;;14.30;99.90;;;;;;5084020;28;20458;-41
2022/10/22 05:28:56;;;;;;;12.93;7.43;;;14.30;99.90;;;;;;5082128;28;20448;-40
2022/10/22 05:31:23;;;;;;;11.53;8.23;;;14.20;99.90;;;;;;5082459;28;20443;-40
2022/10/22 05:33:50;;;;;;;12.27;7.80;;;14.20;99.90;;;;;;5087584;28;20451;-40
2022/10/22 05:36:19;;;;;;;12.20;8.37;;;14.20;99.90;;;;;;5097657;28;20476;-39
2022/10/22 05:38:49;;;;;;;13.67;7.50;;;14.20;99.90;;;;;;5091265;28;20468;-41
2022/10/22 05:41:18;;;;;;;13.07;8.63;;;14.20;99.90;;;;;;5087543;28;20787;-39
2022/10/22 05:43:44;;;;;;;10.83;7.47;;;14.20;99.90;;;;;;5088431;28;20777;-41
2022/10/22 05:46:13;;;;;;;16.30;9.27;;;14.20;99.90;;;;;;5091520;28;20808;-40
2022/10/22 05:48:40;;;;;;;11.60;7.90;;;14.20;99.90;;;;;;5092064;28;20426;-40
2022/10/22 05:51:09;;;;;;;13.63;7.77;;;14.20;99.90;;;;;;5090679;28;20470;-40
2022/10/22 05:53:38;;;;;;;13.90;7.60;;;14.20;99.90;;;;;;5091242;28;20457;-41
2022/10/22 05:56:08;;;;;;;11.43;8.07;;;14.20;99.90;;;;;;5095184;28;20472;-37
2022/10/22 05:58:36;;;;;;;11.93;6.57;;;14.20;99.90;;;;;;5105016;28;20442;-39
2022/10/22 06:01:04;;;;;;;13.03;7.80;;;14.20;99.90;;;;;;5091773;28;20438;-40
2022/10/22 06:03:31;;;;;;;8.73;7.03;;;14.10;99.90;;;;;;5095974;28;20526;-42
2022/10/22 06:06:01;;;;;;;11.70;7.40;;;14.10;99.90;;;;;;5110074;28;20442;-64
2022/10/22 06:08:29;;;;;;;14.27;8.90;;;14.10;99.90;;;;;;5106629;28;21012;-40
2022/10/22 06:10:56;;;;;;;14.67;8.50;;;14.00;99.90;;;;;;5101993;28;20429;-40
2022/10/22 06:13:24;;;;;;;14.73;7.40;;;14.00;99.90;;;;;;5093053;28;20914;-41
2022/10/22 06:15:52;;;;;;;20.20;8.07;;;14.00;99.90;;;;;;5101761;28;20483;-40
2022/10/22 06:18:19;;;;;;;14.83;8.73;;;14.00;99.90;;;;;;5101148;28;20452;-39
2022/10/22 06:20:48;;;;;;;14.13;8.70;;;14.00;99.90;;;;;;5101522;28;20437;-40
2022/10/22 06:23:15;;;;;;;9.07;6.50;;;14.00;99.90;;;;;;5093933;28;20456;-40
2022/10/22 06:25:42;;;;;;;14.53;9.00;;;14.00;99.90;;;;;;5097373;28;20529;-39
2022/10/22 06:28:09;;;;;;;13.67;7.73;;;14.00;99.90;;;;;;5090783;28;20818;-41
2022/10/22 06:30:38;;;;;;;12.30;7.20;;;14.00;99.90;;;;;;5090676;28;20430;-42
2022/10/22 06:33:05;;;;;;;10.63;7.83;;;14.00;99.90;;;;;;5088769;28;20840;-38
2022/10/22 06:35:32;;;;;;;11.87;7.50;;;14.00;99.90;;;;;;5084772;28;20493;-40
2022/10/22 06:37:58;;;;;;;10.53;6.37;;;14.00;99.90;;;;;;5084431;28;20446;-41
2022/10/22 06:40:25;;;;;;;10.57;6.80;;;14.00;99.90;;;;;;5085098;28;20467;-41
2022/10/22 06:42:54;;;;;;;12.93;7.23;;;14.00;99.90;;;;;;5084197;28;20887;-39
2022/10/22 06:45:20;;;;;;;9.43;6.20;;;14.00;99.90;;;;;;5086263;28;20958;-42
2022/10/22 06:47:49;;;;;;;10.50;7.77;;;14.10;99.90;;;;;;5105082;28;20452;-40
2022/10/22 06:50:16;;;;;;;12.90;7.73;;;14.10;99.90;;;;;;5104863;28;20538;-41
2022/10/22 06:52:43;;;;;;;14.93;7.97;;;14.10;99.90;;;;;;5099890;28;20504;-40
2022/10/22 06:55:10;;;;;;;16.40;8.33;;;14.10;99.90;;;;;;5097510;28;20464;-40
2022/10/22 06:57:37;;;;;;;12.13;7.50;;;14.20;99.90;;;;;;5096176;28;20453;-41
2022/10/22 07:00:05;;;;;;;13.80;7.40;;;14.20;99.90;;;;;;5096196;28;20483;-41
2022/10/22 07:02:34;;;;;;;10.40;6.50;;;14.20;99.90;;;;;;5100112;28;20452;-41
2022/10/22 07:05:02;;;;;;;10.77;7.27;;;14.30;99.90;;;;;;5096215;28;20458;-40
2022/10/22 07:07:31;;;;;;;15.93;7.50;;;14.30;99.90;;;;;;5094687;28;20441;-41
2022/10/22 07:09:58;;;;;;;11.10;7.93;;;14.30;99.90;;;;;;5094093;28;20431;-41
2022/10/22 07:12:25;;;;;;;13.60;8.10;;;14.30;99.90;;;;;;5096432;28;20502;-41
2022/10/22 07:14:52;;;;;;;12.87;7.80;;;14.40;99.90;;;;;;5096667;28;20499;-40
2022/10/22 07:17:19;;;;;;;12.47;8.43;;;14.40;99.90;;;;;;5093654;28;20478;-38
2022/10/22 07:19:46;;;;;;;9.43;6.87;;;14.40;99.90;;;;;;5099730;28;20441;-38
2022/10/22 07:22:14;;;;;;;9.70;7.70;;;14.50;99.90;;;;;;5092470;28;20456;-40
2022/10/22 07:24:41;;;;;;;12.47;7.40;;;14.50;99.90;;;;;;5087771;28;20517;-40
2022/10/22 07:27:08;;;;;;;12.03;8.00;;;14.50;99.90;;;;;;5086008;28;20425;-42
2022/10/22 07:29:34;;;;;;;13.27;7.93;;;14.50;99.90;;;;;;5085854;28;20459;-39
2022/10/22 07:32:01;;;;;;;11.83;7.77;;;14.60;99.90;;;;;;5078280;28;20449;-40
2022/10/22 07:34:30;;;;;;;9.67;6.83;;;14.70;99.90;;;;;;5080305;28;20442;-38
2022/10/22 07:36:58;;;;;;;12.50;8.20;;;14.70;99.90;;;;;;5079790;28;20474;-39
2022/10/22 07:39:27;;;;;;;12.20;7.53;;;14.70;99.90;;;;;;5079746;28;20453;-40
2022/10/22 07:41:56;;;;;;;14.50;8.33;;;14.80;99.90;;;;;;5079726;28;21041;-40
2022/10/22 07:44:23;;;;;;;9.80;6.77;;;14.90;99.90;;;;;;5079425;28;20799;-42
2022/10/22 07:46:50;;;;;;;11.17;6.00;;;15.10;99.90;;;;;;5086887;28;20920;-42
2022/10/22 07:49:16;;;;;;;12.80;7.50;;;15.20;99.90;;;;;;5086504;28;20962;-39
2022/10/22 07:51:43;;;;;;;9.83;7.27;;;15.30;99.90;;;;;;5092192;28;20447;-41
2022/10/22 07:54:10;;;;;;;11.50;7.70;;;15.40;99.90;;;;;;5090933;28;20540;-40
2022/10/22 07:56:38;;;;;;;10.40;6.27;;;15.40;99.90;;;;;;5091384;28;20485;-42
2022/10/22 07:59:05;;;;;;;8.70;6.20;;;15.50;99.90;;;;;;5097128;28;20466;-42
2022/10/22 08:01:32;;;;;;;10.37;6.70;;;15.50;99.90;;;;;;5097451;28;21055;-43
2022/10/22 08:03:58;;;;;;;10.27;6.17;;;15.40;99.90;;;;;;5086380;28;20441;-41
2022/10/22 08:06:25;;;;;;;15.87;6.97;;;15.40;99.90;;;;;;5086432;28;20458;-39
2022/10/22 08:08:52;;;;;;;9.67;7.03;;;15.40;99.90;;;;;;5086943;28;20441;-40
2022/10/22 08:11:19;;;;;;;9.20;6.93;;;15.40;99.90;;;;;;5094038;28;20432;-42
2022/10/22 08:13:47;;;;;;;14.07;7.30;;;15.40;99.90;;;;;;5087912;28;20441;-41
2022/10/22 08:16:16;;;;;;;11.13;6.83;;;15.40;99.90;;;;;;5106534;28;20481;-42
2022/10/22 08:18:43;;;;;;;10.20;6.70;;;15.40;99.90;;;;;;5111866;28;20861;-40
2022/10/22 08:21:10;;;;;;;10.20;7.20;;;15.40;99.90;;;;;;5109194;28;20766;-39
2022/10/22 08:23:37;;;;;;;7.27;5.93;;;15.40;99.90;;;;;;5100389;28;20535;-40
2022/10/22 08:26:06;;;;;;;15.57;7.10;;;15.50;99.90;;;;;;5101955;28;20491;-42
2022/10/22 08:28:35;;;;;;;14.07;7.70;;;15.50;99.90;;;;;;5087025;28;20733;-40
2022/10/22 08:31:04;;;;;;;11.30;7.20;;;15.60;99.90;;;;;;5088886;28;20477;-40
2022/10/22 08:33:31;;;;;;;13.27;7.67;;;15.60;99.90;;;;;;5092728;28;20437;-43
2022/10/22 08:35:57;;;;;;;11.50;8.80;;;15.60;99.90;;;;;;5098424;28;20552;-42
2022/10/22 08:38:24;;;;;;;13.30;7.80;;;15.70;99.90;;;;;;5093792;28;20498;-39
2022/10/22 08:41:00;;;;;;;10.30;7.17;;;15.70;99.90;;;;;;5079081;28;20460;-40
2022/10/22 08:43:44;;;;;;;12.67;9.43;;;15.80;99.90;;;;;;5089038;28;20438;-38
2022/10/22 08:46:24;;;;;;;13.07;6.70;;;15.70;99.90;;;;;;5093851;28;20445;-42
2022/10/22 08:48:53;;;;;;;9.30;7.47;;;15.80;99.90;;;;;;5094127;28;20465;-40
2022/10/22 08:51:23;;;;;;;10.50;6.87;;;15.80;99.90;;;;;;5093983;28;20457;-38
2022/10/22 08:54:08;;;;;;;10.00;6.70;;;15.80;99.90;;;;;;5094636;28;20509;-41
2022/10/22 08:56:36;;;;;;;9.73;6.93;;;16.00;99.90;;;;;;5094438;28;20473;-39
2022/10/22 08:59:10;;;;;;;9.10;7.07;;;15.90;99.90;;;;;;5094238;28;20518;-40
2022/10/22 09:01:41;;;;;;;8.40;6.43;;;15.90;99.90;;;;;;5097525;28;20521;-39
2022/10/22 09:04:18;;;;;;;13.23;7.73;;;15.90;99.90;;;;;;5097906;28;20425;-40
2022/10/22 09:06:46;;;;;;;8.47;6.00;;;16.00;99.90;;;;;;5105530;28;20421;-38
2022/10/22 09:09:16;;;;;;;10.87;8.90;;;16.10;99.90;;;;;;5102679;28;20456;-42
2022/10/22 09:11:46;;;;;;;12.30;7.63;;;16.10;99.90;;;;;;5103420;28;20450;-38
2022/10/22 09:14:15;;;;;;;10.93;7.23;;;16.10;99.90;;;;;;5104401;28;20456;-37
2022/10/22 09:17:05;;;;;;;9.40;7.33;;;16.20;99.90;;;;;;5106060;28;20481;-41
2022/10/22 09:19:41;;;;;;;7.33;5.97;;;16.30;99.90;;;;;;5102192;28;20441;-41
2022/10/22 09:22:20;;;;;;;10.73;6.50;;;16.40;99.90;;;;;;5106486;28;20433;-41
2022/10/22 09:24:48;;;;;;;10.77;8.00;;;16.50;99.90;;;;;;5105818;28;20425;-38
2022/10/22 09:27:19;;;;;;;10.83;7.13;;;16.40;99.90;;;;;;5107257;28;20434;-40
2022/10/22 09:29:47;;;;;;;10.17;7.43;;;16.50;99.90;;;;;;5100839;28;20525;-42
2022/10/22 09:32:15;;;;;;;10.43;7.30;;;16.50;99.90;;;;;;5104885;28;20434;-41
2022/10/22 09:34:44;;;;;;;11.50;7.40;;;16.60;99.90;;;;;;5101860;28;20497;-40
2022/10/22 09:37:16;;;;;;;14.57;8.10;;;16.60;99.90;;;;;;5099340;28;20496;-41
2022/10/22 09:39:45;;;;;;;11.43;6.47;;;16.60;99.90;;;;;;5117644;28;20492;-40
2022/10/22 09:42:16;;;;;;;12.90;8.17;;;16.60;99.90;;;;;;5117649;28;20442;-39
2022/10/22 09:44:43;;;;;;;10.47;7.63;;;16.60;99.90;;;;;;5102754;28;20465;-42
2022/10/22 09:47:32;;;;;;;9.37;7.10;;;16.70;99.90;;;;;;5102976;28;20941;-38
2022/10/22 09:50:19;;;;;;;15.37;6.63;;;16.80;99.90;;;;;;5105926;28;20749;-39
2022/10/22 09:52:45;;;;;;;11.47;6.00;;;16.90;99.90;;;;;;5101111;28;20457;-41
2022/10/22 09:55:14;;;;;;;9.90;7.00;;;16.80;99.90;;;;;;5107657;28;20453;-41
2022/10/22 09:57:41;;;;;;;9.53;6.17;;;16.90;99.90;;;;;;5115390;28;20495;-40
2022/10/22 10:00:10;;;;;;;10.73;5.90;;;16.90;99.90;;;;;;5115212;28;20438;-44
2022/10/22 10:02:40;;;;;;;8.70;6.40;;;16.90;99.90;;;;;;5112099;28;20489;-55
2022/10/22 10:05:08;;;;;;;12.97;6.33;;;17.00;99.90;;;;;;5105216;28;20461;-39
2022/10/22 10:07:36;;;;;;;8.97;6.90;;;17.00;99.90;;;;;;5095929;28;20434;-41
2022/10/22 10:10:14;;;;;;;7.70;5.20;;;17.10;99.90;;;;;;5096774;28;20435;-40
2022/10/22 10:12:46;;;;;;;10.23;7.53;;;17.10;99.90;;;;;;5095410;28;20478;-39
2022/10/22 10:15:20;;;;;;;8.07;6.20;;;17.00;99.90;;;;;;5097195;28;20463;-40
2022/10/22 10:17:57;;;;;;;9.43;6.87;;;16.90;99.90;;;;;;5097085;28;20466;-41
2022/10/22 10:20:32;;;;;;;8.03;6.43;;;16.90;99.90;;;;;;5097380;28;20454;-41
2022/10/22 10:23:08;;;;;;;10.93;6.77;;;16.90;99.90;;;;;;5097873;28;20448;-37
2022/10/22 10:25:41;;;;;;;11.17;7.83;;;16.90;99.90;;;;;;5098145;28;20458;-40
2022/10/22 10:28:24;;;;;;;12.20;7.17;;;16.90;99.90;;;;;;5097903;28;20431;-41
2022/10/22 10:30:58;;;;;;;8.60;6.13;;;16.90;99.90;;;;;;5097871;28;20497;-42
2022/10/22 10:33:38;;;;;;;8.83;6.33;;;17.00;99.90;;;;;;5097102;28;20476;-41
2022/10/22 10:36:14;;;;;;;9.20;6.67;;;17.00;99.90;;;;;;5075902;28;20481;-43
2022/10/22 10:38:56;;;;;;;8.43;6.30;;;17.00;99.90;;;;;;5078482;28;20422;-41
2022/10/22 10:41:32;;;;;;;12.10;6.13;;;17.10;99.90;;;;;;5089394;28;20939;-39
2022/10/22 10:44:15;;;;;;;11.20;7.70;;;17.00;99.90;;;;;;5097743;28;20430;-44
2022/10/22 10:46:50;;;;;;;13.10;7.07;;;17.00;99.90;;;;;;5097722;28;20441;-40
2022/10/22 10:49:22;;;;;;;8.70;6.70;;;17.10;99.90;;;;;;5100481;28;20484;-43
2022/10/22 10:51:57;;;;;;;9.50;7.53;;;17.10;99.90;;;;;;5116901;28;20522;-41
2022/10/22 10:54:35;;;;;;;9.50;6.60;;;17.20;99.90;;;;;;5117510;28;20421;-41
2022/10/22 10:57:08;;;;;;;13.80;8.07;;;17.20;99.90;;;;;;5103662;28;20564;-41
2022/10/22 10:59:49;;;;;;;8.33;6.50;;;17.30;99.90;;;;;;5095838;28;20418;-43
2022/10/22 11:02:48;;;;;;;8.87;5.30;;;17.40;99.90;;;;;;5095655;28;20469;-41
2022/10/22 11:05:37;;;;;;;10.33;7.47;;;17.60;99.90;;;;;;5096114;28;20506;-39
2022/10/22 11:08:10;;;;;;;9.40;6.63;;;17.70;99.90;;;;;;5095861;28;20442;-40
2022/10/22 11:10:40;;;;;;;10.20;7.37;;;17.80;99.90;;;;;;5092102;28;20423;-41
2022/10/22 11:13:16;;;;;;;8.33;7.20;;;17.80;99.90;;;;;;5088364;28;20468;-40
2022/10/22 11:15:47;;;;;;;12.17;8.70;;;18.00;99.90;;;;;;5082838;28;20461;-38
2022/10/22 11:18:20;;;;;;;9.23;7.50;;;18.00;99.90;;;;;;5085749;28;20471;-41
2022/10/22 11:20:57;;;;;;;13.47;10.27;;;18.10;99.90;;;;;;5094780;28;20427;-39
2022/10/22 11:23:29;;;;;;;10.43;8.07;;;18.20;99.90;;;;;;5077908;28;20518;-41
2022/10/22 11:25:56;;;;;;;9.63;6.57;;;18.30;99.90;;;;;;5082857;28;20882;-40
2022/10/22 11:28:26;;;;;;;14.40;8.50;;;18.40;99.90;;;;;;5087769;28;20450;-40
2022/10/22 11:31:01;;;;;;;11.27;7.40;;;18.60;99.90;;;;;;5093001;28;20462;-38
2022/10/22 11:33:37;;;;;;;11.00;7.30;;;18.60;99.90;;;;;;5089540;28;20797;-38
2022/10/22 11:36:08;;;;;;;12.60;7.30;;;18.70;99.90;;;;;;5091448;28;20419;-40
2022/10/22 11:38:35;;;;;;;12.30;7.80;;;18.80;99.90;;;;;;5093977;28;20545;-41
2022/10/22 11:41:05;;;;;;;12.90;9.20;;;18.80;99.90;;;;;;5103284;28;20437;-41
2022/10/22 11:43:35;;;;;;;14.10;8.10;;;18.80;99.90;;;;;;5095627;28;20475;-40
2022/10/22 11:46:09;;;;;;;9.30;7.50;;;18.90;99.90;;;;;;5096744;28;20445;-41
2022/10/22 11:48:38;;;;;;;9.83;8.23;;;18.90;99.90;;;;;;5093653;28;20457;-41
2022/10/22 11:51:31;;;;;;;10.37;7.33;;;19.00;99.90;;;;;;5094379;28;20446;-40
2022/10/22 11:54:01;;;;;;;10.30;7.60;;;19.20;99.90;;;;;;5083468;28;20452;-41
2022/10/22 11:56:37;;;;;;;11.20;7.57;;;19.20;99.90;;;;;;5107245;28;20769;-40
2022/10/22 11:59:08;;;;;;;10.50;5.97;;;19.40;99.90;;;;;;5103120;28;20450;-40
2022/10/22 12:01:42;;;;;;;8.47;6.70;;;19.40;99.90;;;;;;5092589;28;20430;-40
2022/10/22 12:04:18;;;;;;;7.90;6.63;;;19.50;99.90;;;;;;5090356;28;20461;-40
2022/10/22 12:06:55;;;;;;;7.47;5.90;;;19.60;99.90;;;;;;5089523;28;20449;-39
2022/10/22 12:09:25;;;;;;;6.90;5.80;;;19.50;99.90;;;;;;5086057;28;20473;-41
2022/10/22 12:11:52;;;;;;;13.27;6.50;;;19.40;99.90;;;;;;5087383;28;20545;-41
2022/10/22 12:14:25;;;;;;;6.83;5.47;;;19.40;99.90;;;;;;5085435;28;20466;-40
2022/10/22 12:16:55;;;;;;;5.70;5.10;;;19.40;99.90;;;;;;5082743;28;20441;-41
2022/10/22 12:19:29;;;;;;;11.07;5.03;;;19.30;99.90;;;;;;5086190;28;20434;-40
2022/10/22 12:21:59;;;;;;;8.10;4.60;;;19.40;99.90;;;;;;5098609;28;20433;-40
2022/10/22 12:24:31;;;;;;;6.60;4.90;;;19.50;99.90;;;;;;5094636;28;20440;-40
2022/10/22 12:26:58;;;;;;;7.07;5.00;;;19.60;99.90;;;;;;5086332;28;20457;-38
2022/10/22 12:29:25;;;;;;;6.50;4.37;;;19.70;99.90;;;;;;5075469;28;20446;-39
2022/10/22 12:31:53;;;;;;;7.73;4.67;;;19.70;99.90;;;;;;5079840;28;20441;-40
2022/10/22 12:34:23;;;;;;;6.30;4.20;;;19.70;99.90;;;;;;5083075;28;20484;-40
2022/10/22 12:36:51;;;;;;;5.40;4.00;;;19.80;99.90;;;;;;5083166;28;20450;-41
2022/10/22 12:39:21;;;;;;;8.90;4.20;;;19.70;99.90;;;;;;5089551;28;20434;-39
2022/10/22 12:41:48;;;;;;;4.67;3.57;;;19.80;99.90;;;;;;5102654;28;20472;-38
2022/10/22 12:44:17;;;;;;;7.93;3.73;;;19.80;99.90;;;;;;5103258;28;20507;-39
2022/10/22 12:46:46;;;;;;;6.80;3.53;;;19.90;99.90;;;;;;5093896;28;20466;-42
2022/10/22 12:49:17;;;;;;;5.80;3.43;;;20.00;99.90;;;;;;5085832;28;20438;-41
2022/10/22 12:51:46;;;;;;;6.67;3.57;;;20.10;99.90;;;;;;5090699;28;20481;-40
2022/10/22 12:54:23;;;;;;;5.50;3.80;;;20.30;99.90;;;;;;5093598;28;20506;-41